Time;durP1;ratioP1;P1;durP2;ratioP2;P2;SDS_P1;SDS_P2;PMS_P1;PMS_P2;Temp;Humidity;BMP_temperature;BMP_pressure;BME280_temperature;BME280_humidity;BME280_pressure;Samples;Min_cycle;Max_cycle;Signal;HPM_P1;HPM_P2
2021/12/07 11:45:02;;;;;;;17.70;7.07;;;;;;;;;;5070682;28;20612;-78
2021/12/07 11:47:28;;;;;;;29.98;8.00;;;;;;;;;;5070560;28;20215;-74
2021/12/07 11:49:55;;;;;;;28.35;8.88;;;;;;;;;;5070480;28;20169;-74
2021/12/07 11:52:21;;;;;;;18.77;7.05;;;;;;;;;;5070447;28;20243;-74
2021/12/07 11:54:47;;;;;;;15.90;6.18;;;;;;;;;;5070545;28;20164;-74
2021/12/07 11:57:16;;;;;;;16.15;6.78;;;;;;;;;;5070479;28;20172;-74
2021/12/07 11:59:42;;;;;;;21.83;7.45;;;;;;;;;;5070469;28;20255;-74
2021/12/07 12:02:08;;;;;;;22.92;8.95;;;;;;;;;;5070433;28;20177;-74
2021/12/07 12:04:35;;;;;;;21.15;7.10;;;;;;;;;;5068917;28;20207;-75
2021/12/07 12:07:01;;;;;;;28.77;6.97;;;;;;;;;;5070106;28;20247;-76
2021/12/07 12:09:29;;;;;;;18.92;5.97;;;;;;;;;;5070147;28;20172;-76
2021/12/07 12:11:59;;;;;;;34.17;8.30;;;;;;;;;;5070157;28;20244;-75
2021/12/07 12:14:37;;;;;;;18.77;5.85;;;;;;;;;;5070106;28;20168;-75
2021/12/07 12:17:30;;;;;;;16.73;5.88;;;;;;;;;;5070085;28;20179;-74
2021/12/07 12:19:56;;;;;;;11.90;6.78;;;;;;;;;;5069275;28;20658;-75
2021/12/07 12:22:31;;;;;;;11.93;5.65;;;;;;;;;;5069956;28;20184;-74
2021/12/07 12:24:59;;;;;;;12.32;6.50;;;;;;;;;;5069958;28;20628;-78
2021/12/07 12:27:27;;;;;;;10.18;4.70;;;;;;;;;;5068804;28;20211;-79
2021/12/07 12:29:55;;;;;;;16.02;5.32;;;;;;;;;;5069805;28;20164;-78
2021/12/07 12:32:27;;;;;;;13.98;6.68;;;;;;;;;;5069598;28;20176;-77
2021/12/07 12:34:56;;;;;;;12.27;5.57;;;;;;;;;;5068535;28;20184;-80
2021/12/07 12:37:23;;;;;;;15.50;5.68;;;;;;;;;;5069713;28;20179;-80
2021/12/07 12:39:53;;;;;;;16.65;4.60;;;;;;;;;;5069623;28;20165;-79
2021/12/07 12:42:23;;;;;;;12.65;4.60;;;;;;;;;;5069538;28;20179;-81
2021/12/07 12:44:49;;;;;;;16.75;5.53;;;;;;;;;;5068004;28;20228;-80
2021/12/07 12:47:19;;;;;;;8.45;4.18;;;;;;;;;;5069210;28;20192;-79
2021/12/07 12:49:46;;;;;;;12.05;3.83;;;;;;;;;;5068098;28;20204;-79
2021/12/07 12:52:12;;;;;;;4.10;3.28;;;;;;;;;;5069405;28;20260;-79
2021/12/07 12:54:41;;;;;;;12.20;4.18;;;;;;;;;;5065605;28;20662;-78
2021/12/07 12:57:08;;;;;;;8.73;3.92;;;;;;;;;;5056059;28;20586;-79
2021/12/07 12:59:37;;;;;;;11.57;3.50;;;;;;;;;;5055980;28;20248;-79
2021/12/07 13:02:03;;;;;;;8.63;4.78;;;;;;;;;;5055935;28;20165;-78
2021/12/07 13:04:30;;;;;;;16.83;4.20;;;;;;;;;;5056058;28;20193;-77
2021/12/07 13:07:25;;;;;;;4.15;3.72;;;;;;;;;;5055879;28;20161;-79
2021/12/07 13:09:58;;;;;;;6.30;3.63;;;;;;;;;;5055711;28;20536;-78
2021/12/07 13:12:27;;;;;;;9.32;4.05;;;;;;;;;;5055748;28;20626;-79
2021/12/07 13:14:55;;;;;;;6.15;3.45;;;;;;;;;;5055755;28;20183;-80
2021/12/07 13:17:29;;;;;;;12.73;4.18;;;;;;;;;;5055487;28;20698;-79
2021/12/07 13:20:04;;;;;;;4.82;3.50;;;;;;;;;;5055623;28;20179;-81
2021/12/07 13:22:35;;;;;;;5.75;2.95;;;;;;;;;;5055576;28;20177;-79
2021/12/07 13:25:10;;;;;;;5.32;2.75;;;;;;;;;;5055724;28;20255;-79
2021/12/07 13:27:36;;;;;;;5.32;2.95;;;;;;;;;;5055511;28;20218;-79
2021/12/07 13:30:03;;;;;;;6.07;3.20;;;;;;;;;;5055458;28;20174;-80
2021/12/07 13:32:29;;;;;;;15.52;3.35;;;;;;;;;;5055496;28;20639;-80
2021/12/07 13:35:04;;;;;;;4.82;2.97;;;;;;;;;;5054099;28;20184;-81
2021/12/07 13:37:44;;;;;;;3.80;3.25;;;;;;;;;;5054303;28;20227;-81
2021/12/07 13:40:17;;;;;;;11.38;2.80;;;;;;;;;;5055295;28;20256;-79
2021/12/07 13:42:47;;;;;;;10.00;3.08;;;;;;;;;;5054930;28;20208;-79
2021/12/07 13:45:17;;;;;;;7.32;3.38;;;;;;;;;;5055161;28;20180;-79
2021/12/07 13:47:44;;;;;;;11.48;2.55;;;;;;;;;;5055082;28;20219;-81
2021/12/07 13:50:12;;;;;;;6.20;2.95;;;;;;;;;;5055248;28;20188;-78
2021/12/07 13:52:43;;;;;;;8.80;4.97;;;;;;;;;;5055060;28;20189;-78
2021/12/07 13:55:14;;;;;;;5.43;2.70;;;;;;;;;;5053716;28;20222;-79
2021/12/07 13:57:41;;;;;;;5.47;2.92;;;;;;;;;;5054929;28;20307;-77
2021/12/07 14:00:16;;;;;;;4.72;3.15;;;;;;;;;;5054865;28;20192;-76
2021/12/07 14:02:44;;;;;;;5.85;3.10;;;;;;;;;;5054761;28;20173;-76
2021/12/07 14:05:15;;;;;;;8.32;2.97;;;;;;;;;;5054808;28;20300;-76
2021/12/07 14:07:41;;;;;;;2.88;2.67;;;;;;;;;;5053749;28;20646;-76
2021/12/07 14:10:18;;;;;;;11.60;4.18;;;;;;;;;;5054742;28;20180;-75
2021/12/07 14:12:45;;;;;;;8.85;2.35;;;;;;;;;;5054636;28;20587;-75
2021/12/07 14:15:24;;;;;;;7.20;3.05;;;;;;;;;;5054585;28;20192;-75
2021/12/07 14:17:55;;;;;;;6.45;3.00;;;;;;;;;;5054582;28;20211;-75
2021/12/07 14:20:32;;;;;;;3.08;2.75;;;;;;;;;;5054513;28;20176;-75
2021/12/07 14:22:59;;;;;;;4.47;2.85;;;;;;;;;;5054191;28;20192;-76
2021/12/07 14:25:25;;;;;;;11.32;3.20;;;;;;;;;;5054163;28;20560;-77
2021/12/07 14:27:55;;;;;;;3.78;2.90;;;;;;;;;;5052740;28;20169;-77
2021/12/07 14:30:22;;;;;;;4.45;3.05;;;;;;;;;;5053064;28;20169;-78
2021/12/07 14:32:48;;;;;;;5.53;2.58;;;;;;;;;;5054195;28;20157;-78
2021/12/07 14:35:22;;;;;;;4.35;2.78;;;;;;;;;;5052823;28;20161;-78
2021/12/07 14:37:48;;;;;;;4.95;2.58;;;;;;;;;;5054078;28;20172;-75
2021/12/07 14:40:14;;;;;;;5.10;3.00;;;;;;;;;;5054209;28;20200;-76
2021/12/07 14:42:43;;;;;;;6.00;2.22;;;;;;;;;;5053831;28;20520;-76
2021/12/07 14:45:11;;;;;;;4.75;2.70;;;;;;;;;;5054083;28;20170;-76
2021/12/07 14:47:37;;;;;;;4.40;2.92;;;;;;;;;;5053835;28;20673;-76
